createdAt,value
2022-12-06T00:01:50.127Z,90.95
2022-12-06T00:05:34.802Z,91.19
2022-12-06T00:09:26.816Z,91.78
2022-12-06T00:13:09.570Z,91.52
2022-12-06T00:16:54.961Z,90.83
2022-12-06T00:20:40.498Z,90.30
2022-12-06T00:24:29.241Z,90.63
2022-12-06T00:28:12.010Z,90.71
2022-12-06T00:31:56.881Z,90.47
2022-12-06T00:35:41.885Z,90.51
2022-12-06T00:39:32.340Z,90.51
2022-12-06T00:43:15.076Z,90.59
2022-12-06T00:46:58.052Z,90.52
2022-12-06T00:50:43.966Z,89.98
2022-12-06T00:54:26.752Z,90.07
2022-12-06T00:58:11.023Z,89.06
2022-12-06T01:01:55.986Z,88.85
2022-12-06T01:05:41.783Z,88.61
2022-12-06T01:09:31.411Z,88.91
2022-12-06T01:13:15.594Z,88.90
2022-12-06T01:16:58.383Z,88.85
2022-12-06T01:20:41.249Z,88.36
2022-12-06T01:24:24.021Z,89.18
2022-12-06T01:28:07.136Z,89.32
2022-12-06T01:31:51.190Z,89.77
2022-12-06T01:35:40.548Z,90.12
2022-12-06T01:39:24.946Z,90.78
2022-12-06T01:43:11.089Z,89.98
2022-12-06T01:46:55.846Z,90.02
2022-12-06T01:50:40.246Z,89.66
2022-12-06T01:58:24.766Z,89.99
2022-12-06T02:02:09.507Z,90.48
2022-12-06T02:05:53.052Z,91.10
2022-12-06T02:10:03.288Z,91.58
2022-12-06T02:13:46.729Z,91.47
2022-12-06T02:17:38.663Z,92.00
2022-12-06T02:21:27.422Z,92.18
2022-12-06T02:25:43.180Z,91.62
2022-12-06T02:29:50.388Z,91.46
2022-12-06T02:33:37.522Z,91.38
2022-12-06T02:37:26.624Z,91.45
2022-12-06T02:41:15.062Z,91.85
2022-12-06T02:45:00.061Z,91.56
2022-12-06T02:48:47.816Z,90.97
2022-12-06T02:52:33.691Z,91.30
2022-12-06T02:56:17.832Z,91.94
2022-12-06T03:00:04.026Z,91.86
2022-12-06T03:04:00.284Z,91.75
2022-12-06T03:07:49.317Z,91.96
2022-12-06T03:11:40.324Z,90.95
2022-12-06T03:15:29.612Z,91.05
2022-12-06T03:19:20.467Z,91.92
2022-12-06T03:23:06.644Z,90.93
2022-12-06T03:26:51.318Z,90.58
2022-12-06T03:30:35.804Z,91.21
2022-12-06T03:34:24.216Z,91.83
2022-12-06T03:38:10.557Z,91.95
2022-12-06T03:41:57.027Z,91.78
2022-12-06T03:45:42.720Z,91.73
2022-12-06T03:49:32.281Z,92.41
2022-12-06T03:53:17.735Z,92.38
2022-12-06T03:57:02.822Z,92.33
2022-12-06T04:00:46.851Z,91.66
2022-12-06T04:04:30.904Z,91.32
2022-12-06T04:08:13.703Z,92.64
2022-12-06T04:11:56.801Z,93.69
2022-12-06T04:15:45.101Z,93.65
2022-12-06T04:19:26.958Z,93.85
2022-12-06T04:23:12.967Z,94.09
2022-12-06T04:27:21.504Z,93.14
2022-12-06T04:31:24.826Z,93.68
2022-12-06T04:35:25.895Z,93.92
2022-12-06T04:39:10.236Z,93.98
2022-12-06T04:43:13.714Z,93.53
2022-12-06T04:47:00.213Z,93.79
2022-12-06T04:50:48.418Z,93.17
2022-12-06T04:54:32.508Z,92.84
2022-12-06T04:58:15.886Z,94.39
2022-12-06T05:01:58.570Z,94.08
2022-12-06T05:05:42.308Z,93.70
2022-12-06T05:09:25.064Z,93.69
2022-12-06T05:13:10.475Z,93.38
2022-12-06T05:16:53.372Z,93.69
2022-12-06T05:20:37.029Z,93.73
2022-12-06T05:24:19.749Z,94.19
2022-12-06T05:28:02.628Z,93.64
2022-12-06T05:31:46.996Z,93.82
2022-12-06T05:35:31.790Z,94.96
2022-12-06T05:39:14.606Z,94.34
2022-12-06T05:43:00.069Z,94.24
2022-12-06T05:46:42.791Z,94.05
2022-12-06T05:50:26.900Z,94.20
2022-12-06T05:54:09.657Z,95.01
2022-12-06T05:57:52.579Z,94.91
2022-12-06T06:01:35.330Z,94.78
2022-12-06T06:05:21.271Z,95.25
2022-12-06T06:09:05.454Z,95.67
2022-12-06T06:12:48.237Z,95.27
2022-12-06T06:16:33.034Z,95.36
2022-12-06T06:20:18.305Z,94.71
2022-12-06T06:24:07.437Z,95.00
2022-12-06T06:27:54.540Z,95.06
2022-12-06T06:31:37.920Z,95.63
2022-12-06T06:35:23.562Z,95.77
2022-12-06T06:39:06.330Z,95.25
2022-12-06T06:42:51.655Z,94.45
2022-12-06T06:46:34.647Z,93.67
2022-12-06T06:50:18.131Z,92.87
2022-12-06T06:54:01.322Z,93.15
2022-12-06T06:57:44.111Z,92.40
2022-12-06T07:01:31.149Z,91.95
2022-12-06T07:05:13.912Z,90.79
2022-12-06T07:08:56.893Z,90.89
2022-12-06T07:12:39.628Z,91.35
2022-12-06T07:16:22.389Z,90.44
2022-12-06T07:20:08.462Z,90.12
2022-12-06T07:23:51.916Z,88.93
2022-12-06T07:27:37.072Z,89.61
2022-12-06T07:31:22.127Z,90.30
2022-12-06T07:35:07.351Z,90.57
2022-12-06T07:38:51.177Z,90.41
2022-12-06T07:42:51.542Z,89.47
2022-12-06T07:46:34.480Z,89.66
2022-12-06T07:50:20.417Z,90.15
2022-12-06T07:54:05.913Z,90.23
2022-12-06T07:57:48.655Z,89.72
2022-12-06T08:01:31.462Z,89.70
2022-12-06T08:05:15.691Z,89.45
2022-12-06T08:08:59.908Z,88.26
2022-12-06T08:12:42.663Z,88.45
2022-12-06T08:16:25.437Z,88.19
2022-12-06T08:20:09.334Z,87.79
2022-12-06T08:23:53.201Z,86.03
2022-12-06T08:27:37.307Z,85.52
2022-12-06T08:31:23.268Z,84.34
2022-12-06T08:35:06.854Z,84.92
2022-12-06T08:38:51.161Z,84.49
2022-12-06T08:42:42.012Z,84.20
2022-12-06T08:46:25.176Z,83.63
2022-12-06T08:50:09.037Z,82.92
2022-12-06T08:53:53.359Z,83.17
2022-12-06T08:57:37.528Z,83.51
2022-12-06T09:01:23.377Z,83.37
2022-12-06T09:05:06.978Z,82.72
2022-12-06T09:08:49.968Z,81.79
2022-12-06T09:12:32.781Z,81.18
2022-12-06T09:16:19.040Z,80.04
2022-12-06T09:20:05.782Z,80.95
2022-12-06T09:23:49.885Z,80.14
2022-12-06T09:27:33.213Z,79.81
2022-12-06T09:31:19.126Z,80.02
2022-12-06T09:35:02.058Z,80.54
2022-12-06T09:38:45.368Z,80.28
2022-12-06T09:42:47.636Z,80.14
2022-12-06T09:46:54.187Z,79.79
2022-12-06T09:50:41.928Z,79.78
2022-12-06T09:54:35.264Z,94.35
2022-12-06T09:58:27.128Z,76.36
2022-12-06T10:02:24.854Z,73.92
2022-12-06T10:06:10.555Z,74.40
2022-12-06T10:10:03.519Z,73.40
2022-12-06T10:13:56.675Z,73.58
2022-12-06T10:17:52.651Z,73.93
2022-12-06T10:21:46.969Z,74.76
2022-12-06T10:25:38.032Z,75.16
2022-12-06T10:29:29.173Z,75.17
2022-12-06T10:33:32.702Z,75.93
2022-12-06T10:37:22.582Z,75.73
2022-12-06T10:41:13.394Z,75.78
2022-12-06T10:44:58.523Z,75.04
2022-12-06T10:48:49.004Z,76.19
2022-12-06T10:52:37.623Z,75.87
2022-12-06T10:56:24.116Z,75.88
2022-12-06T11:00:14.705Z,75.50
2022-12-06T11:04:04.341Z,75.83
2022-12-06T11:07:49.590Z,75.55
2022-12-06T11:11:35.826Z,75.67
2022-12-06T11:15:22.829Z,76.12
2022-12-06T11:19:16.755Z,75.82
2022-12-06T11:23:07.197Z,76.07
2022-12-06T11:26:53.306Z,76.18
2022-12-06T11:30:36.162Z,75.93
2022-12-06T11:34:23.968Z,75.95
2022-12-06T11:38:08.566Z,75.74
2022-12-06T11:41:54.368Z,75.54
2022-12-06T11:45:39.513Z,73.95
2022-12-06T11:49:28.641Z,74.34
2022-12-06T11:53:17.215Z,75.20
2022-12-06T11:57:02.979Z,76.03
2022-12-06T12:00:58.355Z,76.42
2022-12-06T12:04:43.992Z,77.26
2022-12-06T12:08:32.791Z,77.65
2022-12-06T12:12:17.896Z,77.74
2022-12-06T12:16:02.045Z,77.78
2022-12-06T12:19:48.891Z,77.67
2022-12-06T12:23:34.939Z,76.97
2022-12-06T12:27:36.724Z,75.71
2022-12-06T12:31:23.628Z,75.80
2022-12-06T12:35:30.695Z,76.22
2022-12-06T12:39:24.436Z,76.04
2022-12-06T12:43:09.440Z,75.56
2022-12-06T12:46:55.071Z,76.13
2022-12-06T12:54:59.880Z,77.03
2022-12-06T12:58:43.574Z,77.15
2022-12-06T13:02:28.647Z,76.86
2022-12-06T13:06:38.210Z,76.99
2022-12-06T13:10:24.120Z,77.04
2022-12-06T13:14:07.063Z,76.66
2022-12-06T13:17:59.266Z,76.71
2022-12-06T13:21:45.321Z,76.28
2022-12-06T13:25:28.242Z,75.65
2022-12-06T13:29:21.671Z,75.78
2022-12-06T13:33:06.511Z,75.94
2022-12-06T13:36:52.175Z,76.65
2022-12-06T13:40:41.212Z,78.91
2022-12-06T13:44:42.719Z,78.95
2022-12-06T13:48:40.027Z,78.67
2022-12-06T13:52:55.455Z,78.07
2022-12-06T13:56:40.658Z,77.28
2022-12-06T14:00:50.241Z,76.10
2022-12-06T14:04:38.793Z,74.56
2022-12-06T14:08:21.795Z,74.54
2022-12-06T14:12:13.924Z,74.45
2022-12-06T14:15:56.639Z,74.23
2022-12-06T14:19:44.831Z,73.27
2022-12-06T14:23:30.413Z,73.30
2022-12-06T14:27:18.833Z,74.00
2022-12-06T14:31:05.711Z,74.14
2022-12-06T14:34:48.566Z,74.05
2022-12-06T14:38:32.175Z,74.15
2022-12-06T14:42:36.648Z,74.30
2022-12-06T14:46:22.077Z,72.99
2022-12-06T14:50:27.245Z,73.34
2022-12-06T14:54:19.971Z,72.77
2022-12-06T14:58:15.713Z,71.01
2022-12-06T15:01:58.704Z,70.00
2022-12-06T15:05:43.722Z,70.50
2022-12-06T15:09:26.692Z,70.59
2022-12-06T15:13:16.677Z,69.97
2022-12-06T15:17:02.215Z,69.92
2022-12-06T15:20:44.978Z,70.19
2022-12-06T15:24:28.593Z,70.44
2022-12-06T15:28:16.917Z,70.74
2022-12-06T15:32:02.506Z,71.34
2022-12-06T15:35:45.923Z,72.13
2022-12-06T15:39:28.749Z,72.91
2022-12-06T15:43:25.415Z,73.72
2022-12-06T15:47:08.750Z,74.20
2022-12-06T15:50:51.617Z,73.22
2022-12-06T15:54:34.279Z,72.90
2022-12-06T15:58:18.402Z,72.80
2022-12-06T16:02:01.569Z,73.32
2022-12-06T16:05:44.343Z,73.81
2022-12-06T16:09:27.082Z,75.07
2022-12-06T16:13:25.980Z,75.19
2022-12-06T16:17:13.143Z,75.87
2022-12-06T16:20:55.945Z,75.83
2022-12-06T16:24:38.640Z,75.68
2022-12-06T16:28:21.415Z,75.14
2022-12-06T16:32:04.269Z,74.66
2022-12-06T16:35:48.674Z,75.01
2022-12-06T16:39:33.541Z,74.90
2022-12-06T16:43:19.089Z,75.55
2022-12-06T16:47:02.035Z,74.75
2022-12-06T16:50:45.904Z,75.03
2022-12-06T16:54:30.209Z,75.15
2022-12-06T16:58:13.943Z,75.03
2022-12-06T17:01:56.719Z,74.95
2022-12-06T17:05:39.464Z,75.38
2022-12-06T17:09:22.218Z,75.38
2022-12-06T17:13:06.419Z,75.38
2022-12-06T17:16:50.004Z,75.55
2022-12-06T17:20:33.070Z,75.77
2022-12-06T17:24:17.098Z,77.47
2022-12-06T17:27:59.817Z,76.06
2022-12-06T17:31:44.363Z,76.32
2022-12-06T17:35:32.026Z,77.59
2022-12-06T17:39:16.420Z,78.56
2022-12-06T17:43:02.129Z,78.86
2022-12-06T17:46:46.206Z,78.30
2022-12-06T17:50:29.127Z,78.46
2022-12-06T17:54:12.189Z,77.26
2022-12-06T17:57:54.892Z,76.22
2022-12-06T18:02:13.677Z,75.40
2022-12-06T18:05:44.860Z,75.94
2022-12-06T18:09:27.762Z,75.96
2022-12-06T18:13:10.670Z,76.09
2022-12-06T18:16:56.803Z,76.84
2022-12-06T18:20:39.810Z,76.77
2022-12-06T18:24:27.892Z,77.50
2022-12-06T18:28:14.701Z,77.20
2022-12-06T18:31:57.575Z,76.08
2022-12-06T18:35:40.384Z,75.83
2022-12-06T18:39:25.431Z,75.88
2022-12-06T18:43:08.184Z,77.09
2022-12-06T18:46:50.953Z,77.33
2022-12-06T18:50:33.822Z,77.46
2022-12-06T18:54:24.801Z,75.83
2022-12-06T18:58:07.540Z,75.73
2022-12-06T19:01:50.400Z,75.37
2022-12-06T19:06:01.258Z,75.86
2022-12-06T19:09:40.556Z,76.20
2022-12-06T19:13:23.318Z,76.63
2022-12-06T19:17:08.778Z,76.64
2022-12-06T19:20:51.561Z,77.12
2022-12-06T19:24:34.805Z,77.20
2022-12-06T19:28:18.903Z,77.67
2022-12-06T19:32:02.405Z,77.69
2022-12-06T19:35:45.183Z,78.07
2022-12-06T19:39:28.138Z,78.46
2022-12-06T19:43:28.496Z,78.46
2022-12-06T19:47:13.618Z,78.35
2022-12-06T19:50:56.378Z,78.41
2022-12-06T19:54:40.163Z,78.85
2022-12-06T19:58:23.942Z,79.40
2022-12-06T20:02:07.275Z,79.15
2022-12-06T20:05:51.729Z,79.15
2022-12-06T20:09:35.393Z,79.74
2022-12-06T20:13:18.119Z,79.90
2022-12-06T20:17:00.869Z,80.50
2022-12-06T20:20:47.909Z,80.54
2022-12-06T20:24:37.364Z,80.79
2022-12-06T20:28:21.214Z,80.87
2022-12-06T20:32:04.159Z,81.98
2022-12-06T20:35:46.848Z,81.90
2022-12-06T20:39:40.185Z,82.43
2022-12-06T20:43:23.104Z,83.10
2022-12-06T20:47:06.003Z,83.70
2022-12-06T20:50:50.803Z,84.54
2022-12-06T20:54:50.337Z,84.53
2022-12-06T20:58:33.795Z,83.91
2022-12-06T21:02:16.630Z,84.07
2022-12-06T21:06:00.203Z,84.18
2022-12-06T21:09:53.218Z,83.68
2022-12-06T21:13:36.566Z,83.03
2022-12-06T21:17:19.256Z,82.96
2022-12-06T21:21:02.055Z,82.45
2022-12-06T21:25:01.451Z,82.30
2022-12-06T21:28:44.402Z,82.02
2022-12-06T21:32:27.090Z,82.40
2022-12-06T21:36:11.918Z,87.12
2022-12-06T21:39:54.656Z,84.05
2022-12-06T21:43:38.789Z,82.98
2022-12-06T21:47:21.539Z,83.27
2022-12-06T21:51:05.507Z,83.07
2022-12-06T21:55:09.451Z,83.83
2022-12-06T21:58:54.146Z,83.95
2022-12-06T22:02:37.018Z,83.41
2022-12-06T22:06:20.101Z,84.22
2022-12-06T22:10:03.067Z,84.45
2022-12-06T22:13:46.470Z,85.25
2022-12-06T22:17:30.549Z,86.43
2022-12-06T22:21:15.724Z,86.74
2022-12-06T22:25:04.422Z,86.15
2022-12-06T22:28:49.279Z,86.44
2022-12-06T22:32:35.588Z,86.88
2022-12-06T22:36:18.958Z,86.94
2022-12-06T22:40:31.304Z,87.75
2022-12-06T22:44:14.096Z,86.78
2022-12-06T22:48:05.541Z,85.81
2022-12-06T22:51:48.682Z,84.05
2022-12-06T22:55:38.355Z,84.13
2022-12-06T22:59:22.156Z,84.40
2022-12-06T23:03:06.313Z,84.76
2022-12-06T23:06:49.063Z,84.28
2022-12-06T23:10:43.937Z,85.83
2022-12-06T23:14:26.658Z,85.88
2022-12-06T23:18:10.798Z,85.92
2022-12-06T23:21:56.639Z,85.86
2022-12-06T23:25:48.446Z,85.21
2022-12-06T23:29:31.229Z,85.44
2022-12-06T23:33:19.624Z,85.69
2022-12-06T23:37:06.019Z,86.69
2022-12-06T23:41:02.735Z,86.45
2022-12-06T23:44:45.496Z,85.88
2022-12-06T23:48:31.161Z,86.24
2022-12-06T23:52:14.000Z,84.70
2022-12-06T23:56:07.920Z,85.51
2022-12-06T23:59:50.570Z,86.42
